OpenWheelWorld.net Home
scott dixon
linker balk
Firestone Grand Prix of Monterey  
Track: Laguna Seca  
Type: Roadcourse  
Length: 3.602 km.  
Trackrecord: 1:07.722  
Mario Dominguez Mario Dominguez "Laguna Seca is a beautiful track with lots of changes in elevation. It is very fast with no room for error. The corkscrew, turn 7, is great for the drivers as well as the fans."  
Qualifying 1  
P Driver Team Time GL GP AVG  
1. C. Herta (R) HS Racing 1:10.141 0.000  
2. S. Dixon Ganassi Racing 1:10.183 0.043 0.000  
3. A. Rossi Andretti Autosport 1:10.210 0.070 0.027 0.000  
4. J. Newgarden Team Penske 1:10.672 0.531 0.461 0.000  
5. J. Hinchcliffe Arrow Schmidt Peterson 1:10.800 0.660 0.128 0.000  
6. S. Pagenaud Team Penske 1:10.862 0.721 0.061 0.000  
7. W. Power Team Penske 1:10.609 0.468 -0.253 0.000  
8. G. Rahal Rahal Letterman Lanigan 1:10.630 0.489 0.021 0.000  
9. R. Hunter-Reay Andretti Autosport 1:10.692 0.551 0.062 0.000  
10. M. Chilton Carlin 1:10.726 0.585 0.034 0.000  
11. M. Ericsson (R) Arrow Schmidt Peterson 1:11.167 1.026 0.441 0.000  
12. S. Ferrucci (R) Dale Coyne 1:12.414 2.273 1.247 0.000  
13. C. Daly Andretti Autosport 1:10.779 0.638 -1.635 0.000  
14. F. Rosenqvist (R) Ganassi Racing 1:10.565 0.424 -0.214 0.000  
15. S. Pigot Ed Carpenter Racing 1:10.828 0.687 0.263 0.000  
16. T. Sato Rahal Letterman Lanigan 1:10.839 0.699 0.012 0.000  
17. Z. Veach Andretti Autosport 1:10.841 0.700 0.001 0.000  
18. E. Jones Ed Carpenter Racing 1:10.981 0.840 0.140 0.000  
19. S. Bourdais Dale Coyne 1:11.010 0.869 0.029 0.000  
20. C. Kimball Carlin 1:10.987 0.846 -0.023 0.000  
21. T. Kanaan A.J. Foyt Enterprises 1:11.245 1.105 0.259 0.000  
22. Mo. Andretti Andretti Autosport 1:11.053 0.912 -0.193 0.000  
23. M. Leist A.J. Foyt Enterprises 1:11.518 1.377 0.465 0.000  
24. J. Harvey Meyer-Shank Racing 1:11.271 1.130 -0.247 0.000  
 

P Position | GL Gap Leader | GP Gap Previous | AVG Average Speed